createdAt,value
2017-12-22T00:00:40.410Z,1025.02
2017-12-22T00:01:40.343Z,1024.98
2017-12-22T00:02:40.287Z,1025.01
2017-12-22T00:03:40.231Z,1025.00
2017-12-22T00:04:40.172Z,1024.98
2017-12-22T00:05:40.116Z,1024.96
2017-12-22T00:06:40.060Z,1024.97
2017-12-22T00:07:40.004Z,1024.91
2017-12-22T00:08:39.945Z,1024.92
2017-12-22T00:09:39.889Z,1024.93
2017-12-22T00:10:39.832Z,1024.90
2017-12-22T00:11:39.776Z,1024.91
2017-12-22T00:12:39.718Z,1024.91
2017-12-22T00:13:39.663Z,1024.87
2017-12-22T00:14:39.605Z,1024.94
2017-12-22T00:15:39.549Z,1024.96
2017-12-22T00:16:39.491Z,1024.92
2017-12-22T00:17:39.436Z,1024.91
2017-12-22T00:18:39.378Z,1024.94
2017-12-22T00:19:39.323Z,1024.97
2017-12-22T00:20:39.264Z,1024.92
2017-12-22T00:21:39.210Z,1024.96
2017-12-22T00:22:39.152Z,1024.94
2017-12-22T00:23:39.095Z,1024.94
2017-12-22T00:24:39.037Z,1024.88
2017-12-22T00:25:38.983Z,1024.91
2017-12-22T00:26:38.927Z,1024.90
2017-12-22T00:27:38.868Z,1024.90
2017-12-22T00:28:38.810Z,1024.91
2017-12-22T00:29:38.753Z,1024.95
2017-12-22T00:30:38.697Z,1024.94
2017-12-22T00:31:38.641Z,1024.97
2017-12-22T00:32:38.582Z,1024.95
2017-12-22T00:33:38.526Z,1024.97
2017-12-22T00:34:38.469Z,1024.95
2017-12-22T00:35:38.415Z,1024.97
2017-12-22T00:36:38.356Z,1024.95
2017-12-22T00:37:38.298Z,1024.94
2017-12-22T00:38:38.244Z,1024.87
2017-12-22T00:39:38.186Z,1024.84
2017-12-22T00:40:38.129Z,1024.85
2017-12-22T00:41:38.072Z,1024.86
2017-12-22T00:42:38.017Z,1024.85
2017-12-22T00:43:37.959Z,1024.81
2017-12-22T00:44:37.901Z,1024.82
2017-12-22T00:45:37.845Z,1024.82
2017-12-22T00:46:37.787Z,1024.81
2017-12-22T00:47:37.732Z,1024.82
2017-12-22T00:48:37.676Z,1024.78
2017-12-22T00:49:37.618Z,1024.76
2017-12-22T00:50:37.561Z,1024.73
2017-12-22T00:51:37.505Z,1024.78
2017-12-22T00:52:37.456Z,1024.74
2017-12-22T00:53:37.390Z,1024.72
2017-12-22T00:54:37.335Z,1024.77
2017-12-22T00:55:37.277Z,1024.77
2017-12-22T00:56:37.220Z,1024.76
2017-12-22T00:57:37.163Z,1024.75
2017-12-22T00:58:37.106Z,1024.74
2017-12-22T00:59:37.050Z,1024.72
2017-12-22T01:00:36.993Z,1024.67
2017-12-22T01:01:36.936Z,1024.67
2017-12-22T01:02:36.879Z,1024.73
2017-12-22T01:03:36.823Z,1024.67
2017-12-22T01:04:36.767Z,1024.69
2017-12-22T01:05:36.709Z,1024.68
2017-12-22T01:06:36.652Z,1024.69
2017-12-22T01:07:36.595Z,1024.69
2017-12-22T01:08:36.538Z,1024.71
2017-12-22T01:09:36.483Z,1024.70
2017-12-22T01:10:36.476Z,1024.66
2017-12-22T01:11:36.368Z,1024.64
2017-12-22T01:12:36.309Z,1024.63
2017-12-22T01:13:36.255Z,1024.61
2017-12-22T01:14:36.204Z,1024.60
2017-12-22T01:15:36.142Z,1024.60
2017-12-22T01:16:36.083Z,1024.58
2017-12-22T01:17:36.028Z,1024.60
2017-12-22T01:18:35.971Z,1024.55
2017-12-22T01:19:35.914Z,1024.55
2017-12-22T01:20:35.855Z,1024.61
2017-12-22T01:21:35.802Z,1024.53
2017-12-22T01:22:35.744Z,1024.55
2017-12-22T01:23:35.687Z,1024.54
2017-12-22T01:24:35.629Z,1024.55
2017-12-22T01:25:35.572Z,1024.52
2017-12-22T01:26:35.516Z,1024.56
2017-12-22T01:27:35.459Z,1024.56
2017-12-22T01:28:35.403Z,1024.52
2017-12-22T01:29:35.345Z,1024.55
2017-12-22T01:30:35.288Z,1024.50
2017-12-22T01:31:35.232Z,1024.50
2017-12-22T01:32:35.174Z,1024.50
2017-12-22T01:33:35.149Z,1024.52
2017-12-22T01:34:35.063Z,1024.57
2017-12-22T01:35:35.004Z,1024.58
2017-12-22T01:36:34.947Z,1024.56
2017-12-22T01:37:34.890Z,1024.57
2017-12-22T01:38:34.834Z,1024.59
2017-12-22T01:39:34.778Z,1024.52
2017-12-22T01:40:34.721Z,1024.56
2017-12-22T01:41:34.664Z,1024.55
2017-12-22T01:42:34.607Z,1024.56
2017-12-22T01:43:34.550Z,1024.55
2017-12-22T01:44:34.493Z,1024.57
2017-12-22T01:45:34.435Z,1024.53
2017-12-22T01:46:34.379Z,1024.54
2017-12-22T01:47:34.322Z,1024.48
2017-12-22T01:48:34.265Z,1024.52
2017-12-22T01:49:34.208Z,1024.50
2017-12-22T01:50:34.152Z,1024.50
2017-12-22T01:51:34.095Z,1024.49
2017-12-22T01:52:34.038Z,1024.49
2017-12-22T01:53:33.983Z,1024.46
2017-12-22T01:54:33.926Z,1024.49
2017-12-22T01:55:33.870Z,1024.43
2017-12-22T01:56:33.810Z,1024.41
2017-12-22T01:57:33.753Z,1024.44
2017-12-22T01:58:33.696Z,1024.43
2017-12-22T01:59:33.640Z,1024.41
2017-12-22T02:00:33.583Z,1024.45
2017-12-22T02:01:33.527Z,1024.43
2017-12-22T02:02:33.476Z,1024.41
2017-12-22T02:03:33.416Z,1024.42
2017-12-22T02:04:33.355Z,1024.44
2017-12-22T02:05:33.300Z,1024.38
2017-12-22T02:06:33.242Z,1024.41
2017-12-22T02:07:33.185Z,1024.41
2017-12-22T02:08:33.127Z,1024.37
2017-12-22T02:09:33.071Z,1024.37
2017-12-22T02:10:33.014Z,1024.37
2017-12-22T02:11:32.958Z,1024.37
2017-12-22T02:12:32.904Z,1024.38
2017-12-22T02:13:32.845Z,1024.38
2017-12-22T02:14:32.787Z,1024.38
2017-12-22T02:15:32.730Z,1024.37
2017-12-22T02:16:32.673Z,1024.37
2017-12-22T02:17:32.616Z,1024.34
2017-12-22T02:18:32.560Z,1024.39
2017-12-22T02:19:32.503Z,1024.38
2017-12-22T02:20:32.445Z,1024.37
2017-12-22T02:21:32.388Z,1024.40
2017-12-22T02:22:32.332Z,1024.35
2017-12-22T02:23:32.275Z,1024.38
2017-12-22T02:24:32.217Z,1024.34
2017-12-22T02:25:32.162Z,1024.38
2017-12-22T02:26:32.106Z,1024.37
2017-12-22T02:27:32.049Z,1024.35
2017-12-22T02:28:31.990Z,1024.35
2017-12-22T02:29:31.934Z,1024.35
2017-12-22T02:30:31.877Z,1024.32
2017-12-22T02:31:31.821Z,1024.33
2017-12-22T02:32:31.763Z,1024.28
2017-12-22T02:33:31.711Z,1024.30
2017-12-22T02:34:31.650Z,1024.28
2017-12-22T02:35:31.594Z,1024.30
2017-12-22T02:36:31.535Z,1024.25
2017-12-22T02:37:31.478Z,1024.22
2017-12-22T02:38:31.421Z,1024.25
2017-12-22T02:39:31.365Z,1024.26
2017-12-22T02:40:31.307Z,1024.22
2017-12-22T02:41:31.250Z,1024.25
2017-12-22T02:42:31.196Z,1024.22
2017-12-22T02:43:31.138Z,1024.21
2017-12-22T02:44:31.081Z,1024.20
2017-12-22T02:45:31.024Z,1024.20
2017-12-22T02:46:30.969Z,1024.18
2017-12-22T02:47:30.910Z,1024.15
2017-12-22T02:48:30.858Z,1024.14
2017-12-22T02:49:30.798Z,1024.13
2017-12-22T02:50:30.739Z,1024.13
2017-12-22T02:51:30.682Z,1024.11
2017-12-22T02:52:30.625Z,1024.09
2017-12-22T02:53:30.569Z,1024.09
2017-12-22T02:54:30.512Z,1024.11
2017-12-22T02:55:30.455Z,1024.12
2017-12-22T02:56:30.398Z,1024.04
2017-12-22T02:57:30.340Z,1024.08
2017-12-22T02:58:30.286Z,1024.12
2017-12-22T02:59:30.227Z,1024.10
2017-12-22T03:00:30.170Z,1024.07
2017-12-22T03:01:30.114Z,1024.07
2017-12-22T03:02:30.056Z,1024.06
2017-12-22T03:03:30.001Z,1024.09
2017-12-22T03:04:29.945Z,1024.04
2017-12-22T03:05:29.887Z,1024.03
2017-12-22T03:06:29.830Z,1024.06
2017-12-22T03:07:29.773Z,1024.03
2017-12-22T03:08:29.714Z,1024.05
2017-12-22T03:09:29.657Z,1024.05
2017-12-22T03:10:29.604Z,1024.04
2017-12-22T03:11:29.552Z,1024.03
2017-12-22T03:12:29.487Z,1024.02
2017-12-22T03:13:29.431Z,1024.00
2017-12-22T03:14:29.375Z,1023.99
2017-12-22T03:15:29.316Z,1023.99
2017-12-22T03:16:29.262Z,1023.98
2017-12-22T03:17:29.204Z,1023.97
2017-12-22T03:18:29.146Z,1023.97
2017-12-22T03:19:29.090Z,1023.95
2017-12-22T03:20:29.039Z,1023.91
2017-12-22T03:21:28.975Z,1023.91
2017-12-22T03:22:28.920Z,1023.93
2017-12-22T03:23:28.863Z,1023.95
2017-12-22T03:24:28.804Z,1023.90
2017-12-22T03:25:28.748Z,1023.91
2017-12-22T03:26:28.691Z,1023.91
2017-12-22T03:27:28.634Z,1023.89
2017-12-22T03:28:28.577Z,1023.87
2017-12-22T03:29:28.520Z,1023.84
2017-12-22T03:30:28.464Z,1023.85
2017-12-22T03:31:28.407Z,1023.87
2017-12-22T03:32:28.349Z,1023.86
2017-12-22T03:33:28.292Z,1023.88
2017-12-22T03:34:28.237Z,1023.88
2017-12-22T03:35:28.187Z,1023.89
2017-12-22T03:36:28.122Z,1023.88
2017-12-22T03:37:28.065Z,1023.89
2017-12-22T03:38:28.009Z,1023.87
2017-12-22T03:39:27.951Z,1023.89
2017-12-22T03:40:27.893Z,1023.87
2017-12-22T03:41:27.839Z,1023.88
2017-12-22T03:42:27.780Z,1023.85
2017-12-22T03:43:27.775Z,1023.87
2017-12-22T03:44:27.667Z,1023.88
2017-12-22T03:45:27.610Z,1023.86
2017-12-22T03:46:27.552Z,1023.81
2017-12-22T03:47:27.496Z,1023.82
2017-12-22T03:48:27.445Z,1023.83
2017-12-22T03:49:27.382Z,1023.78
2017-12-22T03:50:27.324Z,1023.79
2017-12-22T03:51:27.268Z,1023.75
2017-12-22T03:52:27.211Z,1023.74
2017-12-22T03:53:27.157Z,1023.74
2017-12-22T03:54:27.097Z,1023.73
2017-12-22T03:55:27.042Z,1023.71
2017-12-22T03:56:26.983Z,1023.70
2017-12-22T03:57:26.926Z,1023.71
2017-12-22T03:58:26.870Z,1023.67
2017-12-22T03:59:26.812Z,1023.72
2017-12-22T04:00:26.757Z,1023.69
2017-12-22T04:01:26.699Z,1023.72
2017-12-22T04:02:26.643Z,1023.69
2017-12-22T04:03:26.586Z,1023.70
2017-12-22T04:04:26.528Z,1023.70
2017-12-22T04:05:26.472Z,1023.67
2017-12-22T04:06:26.415Z,1023.67
2017-12-22T04:07:26.358Z,1023.67
2017-12-22T04:08:26.321Z,1023.71
2017-12-22T04:09:26.243Z,1023.65
2017-12-22T04:10:26.187Z,1023.64
2017-12-22T04:11:26.129Z,1023.61
2017-12-22T04:12:26.072Z,1023.62
2017-12-22T04:13:26.015Z,1023.61
2017-12-22T04:14:25.958Z,1023.56
2017-12-22T04:15:25.902Z,1023.57
2017-12-22T04:16:25.844Z,1023.58
2017-12-22T04:17:25.787Z,1023.54
2017-12-22T04:18:25.733Z,1023.55
2017-12-22T04:19:25.674Z,1023.51
2017-12-22T04:20:25.616Z,1023.53
2017-12-22T04:21:25.559Z,1023.52
2017-12-22T04:22:25.503Z,1023.51
2017-12-22T04:23:25.447Z,1023.53
2017-12-22T04:24:25.389Z,1023.50
2017-12-22T04:25:25.332Z,1023.51
2017-12-22T04:26:25.275Z,1023.49
2017-12-22T04:27:25.218Z,1023.49
2017-12-22T04:28:25.162Z,1023.49
2017-12-22T04:29:25.105Z,1023.53
2017-12-22T04:30:25.048Z,1023.51
2017-12-22T04:31:24.991Z,1023.46
2017-12-22T04:32:24.933Z,1023.46
2017-12-22T04:33:24.876Z,1023.44
2017-12-22T04:34:24.819Z,1023.47
2017-12-22T04:35:24.763Z,1023.46
2017-12-22T04:36:24.705Z,1023.47
2017-12-22T04:37:24.648Z,1023.47
2017-12-22T04:38:24.591Z,1023.47
2017-12-22T04:39:24.585Z,1023.44
2017-12-22T04:40:24.478Z,1023.46
2017-12-22T04:41:24.420Z,1023.49
2017-12-22T04:42:24.364Z,1023.50
2017-12-22T04:43:24.305Z,1023.50
2017-12-22T04:44:24.272Z,1023.46
2017-12-22T04:45:24.193Z,1023.48
2017-12-22T04:46:24.136Z,1023.42
2017-12-22T04:47:24.079Z,1023.45
2017-12-22T04:48:24.024Z,1023.46
2017-12-22T04:49:23.965Z,1023.48
2017-12-22T04:50:23.908Z,1023.43
2017-12-22T04:51:23.851Z,1023.43
2017-12-22T04:52:23.793Z,1023.42
2017-12-22T04:53:23.737Z,1023.45
2017-12-22T04:54:23.681Z,1023.44
2017-12-22T04:55:23.636Z,1023.42
2017-12-22T04:56:23.565Z,1023.46
2017-12-22T04:57:23.521Z,1023.48
2017-12-22T04:58:23.452Z,1023.49
2017-12-22T04:59:23.395Z,1023.45
2017-12-22T05:00:23.339Z,1023.45
2017-12-22T05:01:23.341Z,1023.40
2017-12-22T05:02:23.224Z,1023.45
2017-12-22T05:03:23.166Z,1023.40
2017-12-22T05:04:23.109Z,1023.40
2017-12-22T05:05:23.053Z,1023.40
2017-12-22T05:06:22.996Z,1023.35
2017-12-22T05:07:22.940Z,1023.36
2017-12-22T05:08:22.882Z,1023.38
2017-12-22T05:09:22.825Z,1023.36
2017-12-22T05:10:22.767Z,1023.38
2017-12-22T05:11:22.712Z,1023.37
2017-12-22T05:12:22.654Z,1023.35
2017-12-22T05:13:22.596Z,1023.35
2017-12-22T05:14:22.582Z,1023.37
2017-12-22T05:15:22.483Z,1023.33
2017-12-22T05:16:22.426Z,1023.37
2017-12-22T05:17:22.370Z,1023.40
2017-12-22T05:18:22.312Z,1023.35
2017-12-22T05:19:22.255Z,1023.36
2017-12-22T05:20:22.199Z,1023.35
2017-12-22T05:21:22.141Z,1023.39
2017-12-22T05:22:22.085Z,1023.38
2017-12-22T05:23:22.026Z,1023.33
2017-12-22T05:24:21.970Z,1023.36
2017-12-22T05:25:21.913Z,1023.34
2017-12-22T05:26:21.856Z,1023.32
2017-12-22T05:27:21.806Z,1023.33
2017-12-22T05:28:21.742Z,1023.29
2017-12-22T05:29:21.684Z,1023.27
2017-12-22T05:30:21.665Z,1023.25
2017-12-22T05:31:21.588Z,1023.25
2017-12-22T05:32:21.513Z,1023.24
2017-12-22T05:33:21.458Z,1023.27
2017-12-22T05:34:21.400Z,1023.22
2017-12-22T05:35:21.344Z,1023.26
2017-12-22T05:36:21.285Z,1023.20
2017-12-22T05:37:21.229Z,1023.21
2017-12-22T05:38:21.173Z,1023.16
2017-12-22T05:39:21.116Z,1023.11
2017-12-22T05:40:21.058Z,1023.06
2017-12-22T05:41:21.001Z,1023.10
2017-12-22T05:42:20.945Z,1023.10
2017-12-22T05:43:20.888Z,1023.09
2017-12-22T05:44:20.831Z,1023.06
2017-12-22T05:45:20.775Z,1023.05
2017-12-22T05:46:20.719Z,1023.07
2017-12-22T05:47:20.661Z,1023.08
2017-12-22T05:48:20.604Z,1023.11
2017-12-22T05:49:20.549Z,1023.12
2017-12-22T05:50:20.492Z,1023.13
2017-12-22T05:51:20.438Z,1023.14
2017-12-22T05:52:20.377Z,1023.20
2017-12-22T05:53:20.320Z,1023.19
2017-12-22T05:54:20.263Z,1023.20
2017-12-22T05:55:20.210Z,1023.21
2017-12-22T05:56:20.151Z,1023.24
2017-12-22T05:57:20.095Z,1023.24
2017-12-22T05:58:20.040Z,1023.24
2017-12-22T05:59:19.980Z,1023.27
2017-12-22T06:00:19.925Z,1023.23
2017-12-22T06:01:19.866Z,1023.26
2017-12-22T06:02:19.811Z,1023.24
2017-12-22T06:03:19.760Z,1023.23
2017-12-22T06:04:19.696Z,1023.25
2017-12-22T06:05:19.641Z,1023.24
2017-12-22T06:06:19.585Z,1023.26
2017-12-22T06:07:19.527Z,1023.25
2017-12-22T06:08:19.469Z,1023.26
2017-12-22T06:09:19.415Z,1023.21
2017-12-22T06:10:19.357Z,1023.21
2017-12-22T06:11:19.299Z,1023.22
2017-12-22T06:12:19.243Z,1023.19
2017-12-22T06:13:19.186Z,1023.22
2017-12-22T06:14:19.130Z,1023.18
2017-12-22T06:15:19.073Z,1023.22
2017-12-22T06:16:19.014Z,1023.21
2017-12-22T06:17:18.961Z,1023.21
2017-12-22T06:18:18.903Z,1023.21
2017-12-22T06:19:18.846Z,1023.22
2017-12-22T06:20:18.789Z,1023.19
2017-12-22T06:21:18.732Z,1023.17
2017-12-22T06:22:18.675Z,1023.15
2017-12-22T06:23:18.619Z,1023.15
2017-12-22T06:24:18.561Z,1023.15
2017-12-22T06:25:18.506Z,1023.09
2017-12-22T06:26:18.450Z,1023.12
2017-12-22T06:27:18.394Z,1023.11
2017-12-22T06:28:18.334Z,1023.09
2017-12-22T06:29:18.278Z,1023.06
2017-12-22T06:30:18.222Z,1023.06
2017-12-22T06:31:18.165Z,1023.04
2017-12-22T06:32:18.107Z,1023.05
2017-12-22T06:33:18.050Z,1023.00
2017-12-22T06:34:17.996Z,1023.01
2017-12-22T06:35:17.938Z,1023.01
2017-12-22T06:36:17.880Z,1023.00
2017-12-22T06:37:17.824Z,1023.02
2017-12-22T06:38:17.767Z,1023.00
2017-12-22T06:39:17.711Z,1023.02
2017-12-22T06:40:17.653Z,1023.05
2017-12-22T06:41:17.597Z,1023.02
2017-12-22T06:42:17.540Z,1022.99
2017-12-22T06:43:17.484Z,1023.02
2017-12-22T06:44:17.428Z,1023.02
2017-12-22T06:45:17.371Z,1022.99
2017-12-22T06:46:17.331Z,1023.00
2017-12-22T06:47:17.258Z,1023.02
2017-12-22T06:48:17.200Z,1023.02
2017-12-22T06:49:17.144Z,1022.99
2017-12-22T06:50:17.086Z,1023.02
2017-12-22T06:51:17.030Z,1022.98
2017-12-22T06:52:16.972Z,1022.94
2017-12-22T06:53:16.916Z,1022.96
2017-12-22T06:54:16.859Z,1022.95
2017-12-22T06:55:16.807Z,1022.99
2017-12-22T06:56:16.745Z,1022.99
2017-12-22T06:57:16.687Z,1022.98
2017-12-22T06:58:16.632Z,1022.95
2017-12-22T06:59:16.575Z,1022.94
2017-12-22T07:00:16.518Z,1022.95
2017-12-22T07:01:16.463Z,1022.91
2017-12-22T07:02:16.405Z,1022.95
2017-12-22T07:03:16.348Z,1022.93
2017-12-22T07:04:16.291Z,1022.97
2017-12-22T07:05:16.237Z,1022.92
2017-12-22T07:06:16.178Z,1022.96
2017-12-22T07:07:16.120Z,1022.97
2017-12-22T07:08:16.063Z,1022.97
2017-12-22T07:09:16.007Z,1022.94
2017-12-22T07:10:15.950Z,1022.93
2017-12-22T07:11:15.895Z,1022.94
2017-12-22T07:12:15.836Z,1022.91
2017-12-22T07:13:15.780Z,1022.91
2017-12-22T07:14:15.723Z,1022.90
2017-12-22T07:15:15.668Z,1022.92
2017-12-22T07:16:15.609Z,1022.92
2017-12-22T07:17:15.554Z,1022.94
2017-12-22T07:18:15.496Z,1022.93
2017-12-22T07:19:15.439Z,1023.01
2017-12-22T07:20:15.381Z,1022.99
2017-12-22T07:21:15.325Z,1022.98
2017-12-22T07:22:15.268Z,1023.01
2017-12-22T07:23:15.211Z,1023.00
2017-12-22T07:24:15.153Z,1023.02
2017-12-22T07:25:15.097Z,1023.01
2017-12-22T07:26:15.040Z,1022.98
2017-12-22T07:27:14.984Z,1023.04
2017-12-22T07:28:14.929Z,1023.00
2017-12-22T07:29:14.869Z,1023.01
2017-12-22T07:30:14.814Z,1022.99
2017-12-22T07:31:14.756Z,1023.00
2017-12-22T07:32:14.699Z,1023.01
2017-12-22T07:33:14.642Z,1022.98
2017-12-22T07:34:14.587Z,1023.00
2017-12-22T07:35:14.529Z,1023.00
2017-12-22T07:36:14.473Z,1023.03
2017-12-22T07:37:14.415Z,1023.04
2017-12-22T07:38:14.360Z,1023.01
2017-12-22T07:39:14.302Z,1023.04
2017-12-22T07:40:14.289Z,1023.03
2017-12-22T07:41:14.188Z,1023.08
2017-12-22T07:42:14.131Z,1023.08
2017-12-22T07:43:14.076Z,1023.05
2017-12-22T07:44:14.020Z,1023.11
2017-12-22T07:45:13.968Z,1023.09
2017-12-22T07:46:13.905Z,1023.11
2017-12-22T07:47:13.848Z,1023.12
2017-12-22T07:48:13.794Z,1023.11
2017-12-22T07:49:13.747Z,1023.12
2017-12-22T07:50:13.677Z,1023.15
2017-12-22T07:51:13.620Z,1023.16
2017-12-22T07:52:13.562Z,1023.17
2017-12-22T07:53:13.507Z,1023.18
2017-12-22T07:54:13.451Z,1023.17
2017-12-22T07:55:13.395Z,1023.18
2017-12-22T07:56:13.337Z,1023.18
2017-12-22T07:57:13.280Z,1023.20
2017-12-22T07:58:13.223Z,1023.23
2017-12-22T07:59:13.167Z,1023.15
2017-12-22T08:00:13.109Z,1023.19
2017-12-22T08:01:13.053Z,1023.18
2017-12-22T08:02:12.997Z,1023.24
2017-12-22T08:03:12.939Z,1023.22
2017-12-22T08:04:12.880Z,1023.26
2017-12-22T08:05:12.824Z,1023.27
2017-12-22T08:06:12.768Z,1023.33
2017-12-22T08:07:12.712Z,1023.31
2017-12-22T08:08:12.681Z,1023.34
2017-12-22T08:09:12.599Z,1023.35
2017-12-22T08:10:12.543Z,1023.37
2017-12-22T08:11:12.485Z,1023.35
2017-12-22T08:12:12.428Z,1023.34
2017-12-22T08:13:12.370Z,1023.36
2017-12-22T08:14:12.315Z,1023.34
2017-12-22T08:15:12.259Z,1023.31
2017-12-22T08:16:12.200Z,1023.29
2017-12-22T08:17:12.144Z,1023.27
2017-12-22T08:18:12.087Z,1023.30
2017-12-22T08:19:12.031Z,1023.32
2017-12-22T08:20:11.973Z,1023.35
2017-12-22T08:21:11.917Z,1023.35
2017-12-22T08:22:11.861Z,1023.37
2017-12-22T08:23:11.803Z,1023.36
2017-12-22T08:24:11.746Z,1023.34
2017-12-22T08:25:11.689Z,1023.36
2017-12-22T08:26:11.631Z,1023.36
2017-12-22T08:27:11.575Z,1023.39
2017-12-22T08:28:11.519Z,1023.40
2017-12-22T08:29:11.462Z,1023.39
2017-12-22T08:30:11.406Z,1023.45
2017-12-22T08:31:11.348Z,1023.43
2017-12-22T08:32:11.291Z,1023.46
2017-12-22T08:33:11.234Z,1023.46
2017-12-22T08:34:11.177Z,1023.46
2017-12-22T08:35:11.121Z,1023.46
2017-12-22T08:36:11.064Z,1023.42
2017-12-22T08:37:11.007Z,1023.41
2017-12-22T08:38:10.950Z,1023.41
2017-12-22T08:39:10.893Z,1023.43
2017-12-22T08:40:10.836Z,1023.45
2017-12-22T08:41:10.779Z,1023.44
2017-12-22T08:42:10.721Z,1023.45
2017-12-22T08:43:10.664Z,1023.47
2017-12-22T08:44:10.611Z,1023.47
2017-12-22T08:45:10.551Z,1023.49
2017-12-22T08:46:10.495Z,1023.47
2017-12-22T08:47:10.439Z,1023.48
2017-12-22T08:48:10.381Z,1023.51
2017-12-22T08:49:10.326Z,1023.48
2017-12-22T08:50:10.268Z,1023.52
2017-12-22T08:51:10.211Z,1023.47
2017-12-22T08:52:10.154Z,1023.53
2017-12-22T08:53:10.099Z,1023.48
2017-12-22T08:54:10.041Z,1023.49
2017-12-22T08:55:09.984Z,1023.53
2017-12-22T08:56:09.926Z,1023.51
2017-12-22T08:57:09.870Z,1023.50
2017-12-22T08:58:09.813Z,1023.58
2017-12-22T08:59:09.757Z,1023.52
2017-12-22T09:00:09.698Z,1023.52
2017-12-22T09:01:09.642Z,1023.55
2017-12-22T09:02:09.589Z,1023.55
2017-12-22T09:03:09.528Z,1023.52
2017-12-22T09:04:09.470Z,1023.59
2017-12-22T09:05:09.413Z,1023.54
2017-12-22T09:06:09.358Z,1023.52
2017-12-22T09:07:09.300Z,1023.53
2017-12-22T09:08:09.243Z,1023.58
2017-12-22T09:09:09.186Z,1023.54
2017-12-22T09:10:09.129Z,1023.54
2017-12-22T09:11:09.072Z,1023.56
2017-12-22T09:12:09.016Z,1023.58
2017-12-22T09:13:08.964Z,1023.57
2017-12-22T09:14:08.907Z,1023.56
2017-12-22T09:15:08.844Z,1023.56
2017-12-22T09:16:08.785Z,1023.56
2017-12-22T09:17:08.730Z,1023.58
2017-12-22T09:18:08.673Z,1023.58
2017-12-22T09:19:08.627Z,1023.62
2017-12-22T09:20:08.561Z,1023.59
2017-12-22T09:21:08.502Z,1023.61
2017-12-22T09:22:08.446Z,1023.65
2017-12-22T09:23:08.388Z,1023.64
2017-12-22T09:24:08.331Z,1023.67
2017-12-22T09:25:08.274Z,1023.65
2017-12-22T09:26:08.221Z,1023.66
2017-12-22T09:27:08.161Z,1023.67
2017-12-22T09:28:08.103Z,1023.67
2017-12-22T09:29:08.047Z,1023.63
2017-12-22T09:30:08.033Z,1023.64
2017-12-22T09:31:07.934Z,1023.66
2017-12-22T09:32:07.876Z,1023.65
2017-12-22T09:33:07.820Z,1023.63
2017-12-22T09:34:07.763Z,1023.66
2017-12-22T09:35:07.706Z,1023.67
2017-12-22T09:36:07.649Z,1023.69
2017-12-22T09:37:07.592Z,1023.65
2017-12-22T09:38:07.536Z,1023.65
2017-12-22T09:39:07.479Z,1023.63
2017-12-22T09:40:07.427Z,1023.67
2017-12-22T09:41:07.369Z,1023.66
2017-12-22T09:42:07.308Z,1023.63
2017-12-22T09:43:07.253Z,1023.68
2017-12-22T09:44:07.202Z,1023.70
2017-12-22T09:45:07.137Z,1023.65
2017-12-22T09:46:07.082Z,1023.69
2017-12-22T09:47:07.024Z,1023.72
2017-12-22T09:48:06.967Z,1023.71
2017-12-22T09:49:06.910Z,1023.72
2017-12-22T09:50:06.853Z,1023.72
2017-12-22T09:51:06.818Z,1023.66
2017-12-22T09:52:06.740Z,1023.64
2017-12-22T09:53:06.684Z,1023.66
2017-12-22T09:54:06.626Z,1023.64
2017-12-22T09:55:06.568Z,1023.63
2017-12-22T09:56:06.511Z,1023.66
2017-12-22T09:57:06.456Z,1023.63
2017-12-22T09:58:06.399Z,1023.62
2017-12-22T09:59:06.343Z,1023.64
2017-12-22T10:00:06.285Z,1023.62
2017-12-22T10:01:06.228Z,1023.63
2017-12-22T10:02:06.172Z,1023.61
2017-12-22T10:03:06.114Z,1023.60
2017-12-22T10:04:06.059Z,1023.58
2017-12-22T10:05:06.002Z,1023.58
2017-12-22T10:06:05.945Z,1023.56
2017-12-22T10:07:05.887Z,1023.56
2017-12-22T10:08:05.836Z,1023.56
2017-12-22T10:09:05.773Z,1023.57
2017-12-22T10:10:05.718Z,1023.51
2017-12-22T10:11:05.660Z,1023.56
2017-12-22T10:12:05.604Z,1023.59
2017-12-22T10:13:05.546Z,1023.54
2017-12-22T10:14:05.490Z,1023.54
2017-12-22T10:15:05.433Z,1023.54
2017-12-22T10:16:05.376Z,1023.52
2017-12-22T10:17:05.320Z,1023.50
2017-12-22T10:18:05.262Z,1023.50
2017-12-22T10:19:05.206Z,1023.51
2017-12-22T10:20:05.149Z,1023.55
2017-12-22T10:21:05.092Z,1023.52
2017-12-22T10:22:05.035Z,1023.52
2017-12-22T10:23:04.979Z,1023.52
2017-12-22T10:24:04.921Z,1023.48
2017-12-22T10:25:04.864Z,1023.50
2017-12-22T10:26:04.809Z,1023.47
2017-12-22T10:27:04.751Z,1023.43
2017-12-22T10:28:04.694Z,1023.44
2017-12-22T10:29:04.637Z,1023.43
2017-12-22T10:30:04.581Z,1023.42
2017-12-22T10:31:04.525Z,1023.40
2017-12-22T10:32:04.466Z,1023.42
2017-12-22T10:33:04.412Z,1023.35
2017-12-22T10:34:04.352Z,1023.32
2017-12-22T10:35:04.299Z,1023.31
2017-12-22T10:36:04.238Z,1023.33
2017-12-22T10:37:04.182Z,1023.32
2017-12-22T10:38:04.125Z,1023.33
2017-12-22T10:39:04.067Z,1023.31
2017-12-22T10:40:04.013Z,1023.29
2017-12-22T10:41:03.955Z,1023.27
2017-12-22T10:42:03.898Z,1023.30
2017-12-22T10:43:03.842Z,1023.29
2017-12-22T10:44:03.783Z,1023.27
2017-12-22T10:45:03.727Z,1023.24
2017-12-22T10:46:03.672Z,1023.27
2017-12-22T10:47:03.624Z,1023.24
2017-12-22T10:48:03.556Z,1023.25
2017-12-22T10:49:03.500Z,1023.22
2017-12-22T10:50:03.447Z,1023.14
2017-12-22T10:51:03.389Z,1023.13
2017-12-22T10:52:03.330Z,1023.18
2017-12-22T10:53:03.272Z,1023.15
2017-12-22T10:54:03.215Z,1023.17
2017-12-22T10:55:03.159Z,1023.17
2017-12-22T10:56:03.101Z,1023.18
2017-12-22T10:57:03.045Z,1023.20
2017-12-22T10:58:02.991Z,1023.22
2017-12-22T10:59:02.932Z,1023.25
2017-12-22T11:00:02.873Z,1023.24
2017-12-22T11:01:02.817Z,1023.24
2017-12-22T11:02:02.761Z,1023.27
2017-12-22T11:03:02.708Z,1023.29
2017-12-22T11:04:02.648Z,1023.28
2017-12-22T11:05:02.590Z,1023.29
2017-12-22T11:06:02.533Z,1023.30
2017-12-22T11:07:02.477Z,1023.27
2017-12-22T11:08:02.419Z,1023.26
2017-12-22T11:09:02.368Z,1023.28
2017-12-22T11:10:02.306Z,1023.29
2017-12-22T11:11:02.249Z,1023.31
2017-12-22T11:12:02.191Z,1023.35
2017-12-22T11:13:02.135Z,1023.32
2017-12-22T11:14:02.077Z,1023.30
2017-12-22T11:15:02.022Z,1023.30
2017-12-22T11:16:01.963Z,1023.29
2017-12-22T11:17:01.907Z,1023.32
2017-12-22T11:18:01.851Z,1023.31
2017-12-22T11:19:01.844Z,1023.31
2017-12-22T11:20:01.736Z,1023.32
2017-12-22T11:21:01.678Z,1023.28
2017-12-22T11:22:01.624Z,1023.27
2017-12-22T11:23:01.567Z,1023.25
2017-12-22T11:24:01.507Z,1023.31
2017-12-22T11:25:01.451Z,1023.27
2017-12-22T11:26:01.395Z,1023.31
2017-12-22T11:27:01.339Z,1023.23
2017-12-22T11:28:01.280Z,1023.30
2017-12-22T11:29:01.224Z,1023.34
2017-12-22T11:30:01.169Z,1023.34
2017-12-22T11:31:01.110Z,1023.28
2017-12-22T11:32:01.052Z,1023.33
2017-12-22T11:33:00.996Z,1023.28
2017-12-22T11:34:00.940Z,1023.31
2017-12-22T11:35:00.881Z,1023.33
2017-12-22T11:36:00.825Z,1023.32
2017-12-22T11:37:00.767Z,1023.30
2017-12-22T11:38:00.710Z,1023.32
2017-12-22T11:39:00.653Z,1023.30
2017-12-22T11:40:00.597Z,1023.25
2017-12-22T11:41:00.539Z,1023.21
2017-12-22T11:42:00.482Z,1023.23
2017-12-22T11:43:00.428Z,1023.25
2017-12-22T11:44:00.425Z,1023.23
2017-12-22T11:45:00.311Z,1023.18
2017-12-22T11:46:00.256Z,1023.18
2017-12-22T11:47:00.198Z,1023.13
2017-12-22T11:48:00.140Z,1023.16
2017-12-22T11:49:00.083Z,1023.16
2017-12-22T11:50:00.071Z,1023.15
2017-12-22T11:50:59.971Z,1023.18
2017-12-22T11:51:59.973Z,1023.15
2017-12-22T11:52:59.856Z,1023.12
2017-12-22T11:53:59.804Z,1023.09
2017-12-22T11:54:59.742Z,1023.11
2017-12-22T11:55:59.793Z,1023.14
2017-12-22T11:56:59.628Z,1023.17
2017-12-22T11:57:59.571Z,1023.18
2017-12-22T11:58:59.515Z,1023.17
2017-12-22T11:59:59.455Z,1023.20
2017-12-22T12:00:59.399Z,1023.20
2017-12-22T12:01:59.343Z,1023.16
2017-12-22T12:02:59.290Z,1023.16
2017-12-22T12:03:59.229Z,1023.14
2017-12-22T12:04:59.172Z,1023.12